createdAt,value
2023-03-26T00:00:05.501Z,100623.53
2023-03-26T00:02:35.242Z,100629.88
2023-03-26T00:05:05.919Z,100631.06
2023-03-26T00:07:35.607Z,100634.41
2023-03-26T00:10:05.465Z,100639.09
2023-03-26T00:12:38.308Z,100634.88
2023-03-26T00:15:09.347Z,100637.09
2023-03-26T00:17:39.566Z,100635.41
2023-03-26T00:20:10.446Z,100637.25
2023-03-26T00:22:40.638Z,100644.84
2023-03-26T00:25:11.149Z,100644.44
2023-03-26T00:27:40.777Z,100643.28
2023-03-26T00:30:10.952Z,100645.84
2023-03-26T00:32:40.672Z,100646.50
2023-03-26T00:35:10.629Z,100652.53
2023-03-26T00:37:40.308Z,100644.50
2023-03-26T00:40:12.488Z,100639.47
2023-03-26T00:42:42.117Z,100629.66
2023-03-26T00:45:12.274Z,100637.81
2023-03-26T00:47:42.393Z,100633.16
2023-03-26T00:50:16.954Z,100633.00
2023-03-26T00:52:47.785Z,100630.69
2023-03-26T00:55:17.695Z,100635.53
2023-03-26T00:57:47.556Z,100641.91
2023-03-26T01:00:18.703Z,100636.09
2023-03-26T01:02:48.563Z,100638.06
2023-03-26T01:05:47.524Z,100641.25
2023-03-26T01:08:38.380Z,100644.47
2023-03-26T01:11:28.460Z,100637.75
2023-03-26T01:14:28.432Z,100640.94
2023-03-26T01:17:23.842Z,100635.63
2023-03-26T01:20:34.701Z,100634.63
2023-03-26T01:23:06.710Z,100635.63
2023-03-26T01:25:40.564Z,100638.00
2023-03-26T01:28:10.375Z,100625.13
2023-03-26T01:31:00.266Z,100621.13
2023-03-26T01:33:38.176Z,100620.44
2023-03-26T01:36:34.000Z,100621.63
2023-03-26T01:39:23.613Z,100622.16
2023-03-26T01:42:13.690Z,100620.00
2023-03-26T01:44:49.605Z,100621.34
2023-03-26T01:47:19.566Z,100607.59
2023-03-26T01:49:50.052Z,100601.06
2023-03-26T01:52:22.794Z,100602.56
2023-03-26T01:54:52.600Z,100597.19
2023-03-26T01:57:36.411Z,100587.00
2023-03-26T02:00:32.435Z,100597.34
2023-03-26T02:03:25.211Z,100590.66
2023-03-26T02:06:19.074Z,100595.19
2023-03-26T02:09:00.474Z,100595.88
2023-03-26T02:11:35.380Z,100584.97
2023-03-26T02:14:07.492Z,100582.28
2023-03-26T02:16:37.457Z,100579.41
2023-03-26T02:19:07.170Z,100579.09
2023-03-26T02:21:36.771Z,100571.88
2023-03-26T02:24:06.601Z,100570.03
2023-03-26T02:26:37.255Z,100570.03
2023-03-26T02:29:06.940Z,100574.56
2023-03-26T02:31:37.343Z,100565.31
2023-03-26T02:34:07.313Z,100579.91
2023-03-26T02:36:37.386Z,100569.19
2023-03-26T02:39:09.953Z,100568.84
2023-03-26T02:41:40.489Z,100569.00
2023-03-26T02:44:10.089Z,100560.59
2023-03-26T02:46:39.711Z,100554.06
2023-03-26T02:49:09.756Z,100563.13
2023-03-26T02:51:39.472Z,100552.41
2023-03-26T02:54:09.195Z,100546.69
2023-03-26T02:56:38.978Z,100547.38
2023-03-26T02:59:08.663Z,100544.50
2023-03-26T03:01:38.376Z,100544.50
2023-03-26T03:04:09.831Z,100546.16
2023-03-26T03:06:42.538Z,100545.00
2023-03-26T03:09:12.498Z,100537.28
2023-03-26T03:11:42.411Z,100541.13
2023-03-26T03:14:12.068Z,100535.28
2023-03-26T03:16:42.681Z,100538.03
2023-03-26T03:19:12.775Z,100541.59
2023-03-26T03:21:42.555Z,100542.03
2023-03-26T03:24:13.176Z,100541.66
2023-03-26T03:26:43.861Z,100530.81
2023-03-26T03:29:14.535Z,100538.34
2023-03-26T03:31:44.151Z,100534.72
2023-03-26T03:34:13.846Z,100539.31
2023-03-26T03:36:43.537Z,100526.69
2023-03-26T03:39:13.123Z,100537.69
2023-03-26T03:41:42.927Z,100531.88
2023-03-26T03:44:12.594Z,100533.78
2023-03-26T03:46:42.316Z,100532.97
2023-03-26T03:49:12.082Z,100530.47
2023-03-26T03:51:42.573Z,100523.88
2023-03-26T03:54:12.194Z,100523.66
2023-03-26T03:56:41.920Z,100516.81
2023-03-26T03:59:11.804Z,100524.09
2023-03-26T04:01:44.659Z,100527.47
2023-03-26T04:04:14.449Z,100520.22
2023-03-26T04:06:44.161Z,100516.28
2023-03-26T04:09:13.747Z,100508.78
2023-03-26T04:11:43.417Z,100506.50
2023-03-26T04:14:13.150Z,100506.09
2023-03-26T04:16:42.809Z,100502.56
2023-03-26T04:19:12.569Z,100504.44
2023-03-26T04:21:44.315Z,100488.66
2023-03-26T04:24:14.300Z,100483.69
2023-03-26T04:26:44.004Z,100490.09
2023-03-26T04:29:14.421Z,100491.50
2023-03-26T04:31:44.667Z,100488.94
2023-03-26T04:34:27.546Z,100500.31
2023-03-26T04:37:00.454Z,100491.91
2023-03-26T04:39:30.863Z,100487.16
2023-03-26T04:42:00.665Z,100487.09
2023-03-26T04:44:31.949Z,100487.34
2023-03-26T04:47:01.726Z,100482.22
2023-03-26T04:49:31.340Z,100482.19
2023-03-26T04:52:00.954Z,100494.94
2023-03-26T04:54:30.613Z,100488.88
2023-03-26T04:57:01.759Z,100479.94
2023-03-26T04:59:36.065Z,100489.06
2023-03-26T05:02:07.145Z,100487.41
2023-03-26T05:04:38.378Z,100487.59
2023-03-26T05:07:08.971Z,100497.00
2023-03-26T05:09:38.678Z,100497.16
2023-03-26T05:12:08.409Z,100495.28
2023-03-26T05:14:38.029Z,100491.72
2023-03-26T05:17:13.417Z,100490.69
2023-03-26T05:19:43.301Z,100491.91
2023-03-26T05:22:12.910Z,100481.41
2023-03-26T05:24:42.557Z,100472.22
2023-03-26T05:27:16.642Z,100480.97
2023-03-26T05:29:46.391Z,100470.09
2023-03-26T05:32:16.139Z,100475.56
2023-03-26T05:34:45.813Z,100475.97
2023-03-26T05:37:15.443Z,100464.66
2023-03-26T05:39:45.395Z,100459.34
2023-03-26T05:42:15.053Z,100457.72
2023-03-26T05:44:44.670Z,100457.03
2023-03-26T05:47:14.299Z,100449.91
2023-03-26T05:49:44.063Z,100447.22
2023-03-26T05:52:16.686Z,100445.81
2023-03-26T05:54:46.351Z,100441.34
2023-03-26T05:57:16.027Z,100440.63
2023-03-26T05:59:45.696Z,100441.66
2023-03-26T06:02:15.366Z,100434.34
2023-03-26T06:04:47.406Z,100434.44
2023-03-26T06:07:18.362Z,100435.75
2023-03-26T06:09:48.279Z,100439.66
2023-03-26T06:12:17.989Z,100436.19
2023-03-26T06:14:47.566Z,100434.25
2023-03-26T06:17:17.727Z,100432.00
2023-03-26T06:19:47.891Z,100434.25
2023-03-26T06:22:17.602Z,100428.94
2023-03-26T06:24:47.374Z,100428.03
2023-03-26T06:27:17.342Z,100422.38
2023-03-26T06:29:47.028Z,100410.41
2023-03-26T06:32:20.021Z,100424.78
2023-03-26T06:34:49.985Z,100415.41
2023-03-26T06:37:19.643Z,100417.19
2023-03-26T06:39:49.342Z,100426.38
2023-03-26T06:42:19.026Z,100425.41
2023-03-26T06:44:48.649Z,100424.13
2023-03-26T06:47:18.271Z,100416.97
2023-03-26T06:49:47.871Z,100414.47
2023-03-26T06:52:17.487Z,100413.41
2023-03-26T06:54:47.193Z,100415.53
2023-03-26T06:57:17.395Z,100410.22
2023-03-26T06:59:47.389Z,100404.56
2023-03-26T07:02:17.106Z,100398.91
2023-03-26T07:04:46.941Z,100406.00
2023-03-26T07:07:16.614Z,100402.31
2023-03-26T07:09:46.318Z,100401.81
2023-03-26T07:12:16.235Z,100406.34
2023-03-26T07:14:45.918Z,100407.06
2023-03-26T07:17:15.618Z,100401.25
2023-03-26T07:19:45.258Z,100398.72
2023-03-26T07:22:25.050Z,100395.72
2023-03-26T07:24:55.109Z,100392.91
2023-03-26T07:27:53.827Z,100395.44
2023-03-26T07:30:41.768Z,100404.50
2023-03-26T07:33:13.215Z,100399.44
2023-03-26T07:35:51.249Z,100408.72
2023-03-26T07:38:45.705Z,100408.41
2023-03-26T07:41:18.312Z,100414.91
2023-03-26T07:44:29.180Z,100414.44
2023-03-26T07:46:59.000Z,100419.16
2023-03-26T07:49:30.949Z,100417.84
2023-03-26T07:52:00.670Z,100415.53
2023-03-26T07:54:30.499Z,100414.69
2023-03-26T07:57:07.624Z,100413.38
2023-03-26T07:59:41.393Z,100419.22
2023-03-26T08:03:04.765Z,100418.56
2023-03-26T08:05:50.228Z,100426.59
2023-03-26T08:08:45.003Z,100419.25
2023-03-26T08:11:20.748Z,100425.63
2023-03-26T08:14:16.195Z,100424.94
2023-03-26T08:16:49.557Z,100414.91
2023-03-26T08:19:34.801Z,100419.44
2023-03-26T08:22:17.004Z,100423.47
2023-03-26T08:24:58.788Z,100423.97
2023-03-26T08:27:39.369Z,100421.63
2023-03-26T08:30:28.250Z,100430.81
2023-03-26T08:33:24.042Z,100426.97
2023-03-26T08:35:53.793Z,100420.66
2023-03-26T08:38:23.851Z,100426.53
2023-03-26T08:41:16.639Z,100428.69
2023-03-26T08:44:16.151Z,100425.66
2023-03-26T08:47:07.160Z,100425.50
2023-03-26T08:49:48.832Z,100425.00
2023-03-26T08:52:24.578Z,100417.63
2023-03-26T08:55:05.766Z,100431.56
2023-03-26T08:57:53.400Z,100431.06
2023-03-26T09:00:30.631Z,100438.41
2023-03-26T09:03:37.787Z,100434.44
2023-03-26T09:06:28.604Z,100439.63
2023-03-26T09:09:25.453Z,100435.41
2023-03-26T09:12:10.382Z,100435.59
2023-03-26T09:14:55.230Z,100448.50
2023-03-26T09:17:46.230Z,100445.31
2023-03-26T09:20:34.056Z,100453.00
2023-03-26T09:23:43.251Z,100450.81
2023-03-26T09:26:27.339Z,100447.66
2023-03-26T09:28:56.918Z,100447.47
2023-03-26T09:31:35.792Z,100444.28
2023-03-26T09:34:29.642Z,100452.84
2023-03-26T09:37:04.132Z,100452.34
2023-03-26T09:39:57.909Z,100457.88
2023-03-26T09:42:45.970Z,100455.19
2023-03-26T09:45:26.242Z,100473.75
2023-03-26T09:48:07.091Z,100477.44
2023-03-26T09:50:43.961Z,100485.34
2023-03-26T09:53:38.908Z,100477.63
2023-03-26T09:56:45.594Z,100484.66
2023-03-26T10:00:07.364Z,100481.50
2023-03-26T10:03:16.176Z,100488.34
2023-03-26T10:05:47.712Z,100497.72
2023-03-26T10:08:38.993Z,100498.22
2023-03-26T10:11:26.301Z,100505.75
2023-03-26T10:14:23.713Z,100511.47
2023-03-26T10:17:29.905Z,100516.31
2023-03-26T10:20:14.601Z,100514.78
2023-03-26T10:23:08.100Z,100534.03
2023-03-26T10:25:57.151Z,100544.06
2023-03-26T10:28:57.166Z,100541.75
2023-03-26T10:31:45.042Z,100543.91
2023-03-26T10:34:49.591Z,100549.09
2023-03-26T10:37:41.130Z,100555.81
2023-03-26T10:40:28.780Z,100561.16
2023-03-26T10:43:22.829Z,100567.84
2023-03-26T10:46:13.390Z,100567.69
2023-03-26T10:49:04.994Z,100564.34
2023-03-26T10:51:34.553Z,100576.53
2023-03-26T10:54:28.024Z,100579.91
2023-03-26T10:56:58.259Z,100583.22
2023-03-26T10:59:29.072Z,100586.91
2023-03-26T11:02:30.830Z,100590.59
2023-03-26T11:05:22.782Z,100599.78
2023-03-26T11:08:01.002Z,100599.78
2023-03-26T11:10:35.619Z,100618.88
2023-03-26T11:13:23.491Z,100624.22
2023-03-26T11:16:00.084Z,100626.06
2023-03-26T11:19:05.808Z,100630.41
2023-03-26T11:21:50.462Z,100627.38
2023-03-26T11:24:36.824Z,100646.13
2023-03-26T11:27:24.965Z,100637.91
2023-03-26T11:30:37.274Z,100643.97
2023-03-26T11:33:09.715Z,100649.47
2023-03-26T11:35:44.809Z,100661.66
2023-03-26T11:38:39.009Z,100668.22
2023-03-26T11:41:14.990Z,100673.91
2023-03-26T11:43:44.614Z,100681.09
2023-03-26T11:46:17.199Z,100678.41
2023-03-26T11:48:49.415Z,100687.59
2023-03-26T11:51:24.688Z,100697.81
2023-03-26T11:53:56.086Z,100701.81
2023-03-26T11:56:25.685Z,100709.50
2023-03-26T11:59:13.284Z,100717.03
2023-03-26T12:02:02.054Z,100727.94
2023-03-26T12:04:56.854Z,100731.44
2023-03-26T12:07:36.292Z,100734.59
2023-03-26T12:10:18.900Z,100738.09
2023-03-26T12:12:49.607Z,100736.91
2023-03-26T12:15:20.636Z,100741.25
2023-03-26T12:17:54.835Z,100737.06
2023-03-26T12:20:27.729Z,100747.13
2023-03-26T12:23:04.490Z,100750.81
2023-03-26T12:25:35.549Z,100750.97
2023-03-26T12:28:06.338Z,100753.81
2023-03-26T12:30:41.007Z,100752.13
2023-03-26T12:33:19.746Z,100750.94
2023-03-26T12:35:49.487Z,100755.94
2023-03-26T12:38:38.818Z,100759.31
2023-03-26T12:43:53.464Z,100759.47
2023-03-26T12:44:51.580Z,100763.97
2023-03-26T12:48:00.391Z,100758.97
2023-03-26T12:50:17.714Z,100766.81
2023-03-26T12:53:11.160Z,100770.34
2023-03-26T12:56:03.134Z,100768.50
2023-03-26T12:58:42.591Z,100768.66
2023-03-26T13:01:37.834Z,100769.97
2023-03-26T13:04:35.664Z,100781.69
2023-03-26T13:07:23.545Z,100777.16
2023-03-26T13:10:14.617Z,100777.47
2023-03-26T13:12:47.730Z,100779.31
2023-03-26T13:15:23.531Z,100782.97
2023-03-26T13:17:59.511Z,100783.34
2023-03-26T13:21:04.223Z,100798.03
2023-03-26T13:23:42.630Z,100797.38
2023-03-26T13:26:24.660Z,100807.59
2023-03-26T13:29:13.109Z,100804.38
2023-03-26T13:32:02.802Z,100808.06
2023-03-26T13:34:53.067Z,100797.38
2023-03-26T13:37:28.741Z,100805.22
2023-03-26T13:40:05.998Z,100813.00
2023-03-26T13:42:39.559Z,100815.34
2023-03-26T13:45:27.620Z,100819.03
2023-03-26T13:47:58.418Z,100818.50
2023-03-26T13:50:28.055Z,100816.69
2023-03-26T13:52:58.628Z,100820.63
2023-03-26T13:55:45.705Z,100816.69
2023-03-26T13:58:17.563Z,100826.53
2023-03-26T14:01:09.731Z,100828.06
2023-03-26T14:03:59.849Z,100825.69
2023-03-26T14:06:32.342Z,100832.22
2023-03-26T14:09:27.432Z,100847.09
2023-03-26T14:12:00.132Z,100848.94
2023-03-26T14:14:48.998Z,100853.28
2023-03-26T14:17:40.678Z,100854.63
2023-03-26T14:20:28.626Z,100852.53
2023-03-26T14:23:16.623Z,100848.09
2023-03-26T14:25:57.792Z,100853.78
2023-03-26T14:28:36.014Z,100854.25
2023-03-26T14:31:20.978Z,100849.56
2023-03-26T14:34:37.492Z,100860.09
2023-03-26T14:37:44.147Z,100859.72
2023-03-26T14:40:23.032Z,100853.25
2023-03-26T14:43:29.213Z,100854.25
2023-03-26T14:45:58.843Z,100849.19
2023-03-26T14:48:45.215Z,100847.50
2023-03-26T14:51:42.447Z,100857.88
2023-03-26T14:54:15.508Z,100851.84
2023-03-26T14:56:55.643Z,100854.69
2023-03-26T14:59:52.724Z,100846.66
2023-03-26T15:02:22.555Z,100834.81
2023-03-26T15:05:05.341Z,100844.00
2023-03-26T15:07:56.260Z,100839.47
2023-03-26T15:10:43.812Z,100836.94
2023-03-26T15:13:23.186Z,100834.44
2023-03-26T15:16:16.104Z,100849.03
2023-03-26T15:19:12.905Z,100865.84
2023-03-26T15:22:05.929Z,100862.00
2023-03-26T15:24:58.268Z,100867.22
2023-03-26T15:27:33.724Z,100872.22
2023-03-26T15:30:29.712Z,100869.66
2023-03-26T15:33:19.523Z,100872.22
2023-03-26T15:36:27.831Z,100880.22
2023-03-26T15:39:34.238Z,100874.00
2023-03-26T15:42:06.808Z,100871.81
2023-03-26T15:44:56.894Z,100871.81
2023-03-26T15:47:41.942Z,100868.81
2023-03-26T15:50:48.108Z,100861.81
2023-03-26T15:53:42.721Z,100869.97
2023-03-26T15:56:27.613Z,100876.19
2023-03-26T15:59:38.614Z,100874.78
2023-03-26T16:02:32.020Z,100885.66
2023-03-26T16:05:29.397Z,100883.66
2023-03-26T16:08:05.889Z,100887.16
2023-03-26T16:10:54.509Z,100892.69
2023-03-26T16:13:59.149Z,100888.31
2023-03-26T16:16:55.731Z,100899.53
2023-03-26T16:19:24.705Z,100901.16
2023-03-26T16:22:03.728Z,100913.22
2023-03-26T16:24:37.675Z,100918.88
2023-03-26T16:27:16.790Z,100924.91
2023-03-26T16:30:11.130Z,100925.78
2023-03-26T16:32:57.862Z,100930.41
2023-03-26T16:36:07.155Z,100930.25
2023-03-26T16:39:01.640Z,100921.25
2023-03-26T16:41:36.466Z,100923.53
2023-03-26T16:44:33.837Z,100921.84
2023-03-26T16:47:17.161Z,100924.66
2023-03-26T16:50:14.252Z,100926.34
2023-03-26T16:52:47.020Z,100920.47
2023-03-26T16:55:31.370Z,100910.63
2023-03-26T16:58:23.521Z,100907.50
2023-03-26T17:01:05.304Z,100909.47
2023-03-26T17:04:06.699Z,100910.16
2023-03-26T17:07:15.402Z,100908.63
2023-03-26T17:10:02.846Z,100912.59
2023-03-26T17:12:48.918Z,100908.94
2023-03-26T17:15:21.069Z,100911.91
2023-03-26T17:18:09.674Z,100902.22
2023-03-26T17:20:52.559Z,100904.03
2023-03-26T17:23:40.405Z,100908.06
2023-03-26T17:26:24.134Z,100910.91
2023-03-26T17:29:24.727Z,100902.88
2023-03-26T17:32:14.280Z,100906.41
2023-03-26T17:34:53.142Z,100905.88
2023-03-26T17:37:22.984Z,100905.72
2023-03-26T17:39:55.628Z,100896.03
2023-03-26T17:42:35.399Z,100894.31
2023-03-26T17:45:10.476Z,100890.28
2023-03-26T17:48:01.385Z,100894.88
2023-03-26T17:51:03.867Z,100891.34
2023-03-26T17:53:35.174Z,100883.78
2023-03-26T17:56:07.132Z,100884.16
2023-03-26T17:58:38.292Z,100883.63
2023-03-26T18:01:22.787Z,100876.59
2023-03-26T18:03:57.924Z,100873.81
2023-03-26T18:07:11.138Z,100874.31
2023-03-26T18:09:59.398Z,100867.06
2023-03-26T18:12:36.180Z,100872.09
2023-03-26T18:15:23.950Z,100867.91
2023-03-26T18:17:53.539Z,100856.66
2023-03-26T18:20:28.938Z,100856.03
2023-03-26T18:22:58.996Z,100855.81
2023-03-26T18:25:35.252Z,100847.66
2023-03-26T18:28:04.859Z,100855.38
2023-03-26T18:30:34.503Z,100852.16
2023-03-26T18:33:16.828Z,100846.97
2023-03-26T18:35:57.078Z,100852.16
2023-03-26T18:38:35.635Z,100848.63
2023-03-26T18:41:09.683Z,100839.09
2023-03-26T18:43:43.829Z,100840.91
2023-03-26T18:46:15.622Z,100838.25
2023-03-26T18:48:45.564Z,100832.75
2023-03-26T18:51:17.425Z,100836.28
2023-03-26T18:53:54.176Z,100833.44
2023-03-26T18:56:35.278Z,100837.28
2023-03-26T18:59:09.168Z,100834.44
2023-03-26T19:01:38.906Z,100834.72
2023-03-26T19:04:09.097Z,100840.78
2023-03-26T19:06:41.844Z,100843.44
2023-03-26T19:09:24.273Z,100836.72
2023-03-26T19:12:10.456Z,100841.06
2023-03-26T19:15:00.763Z,100850.63
2023-03-26T19:17:32.226Z,100846.56
2023-03-26T19:20:02.169Z,100856.28
2023-03-26T19:22:32.932Z,100857.13
2023-03-26T19:25:03.848Z,100865.97
2023-03-26T19:27:33.582Z,100861.63
2023-03-26T19:30:03.203Z,100861.63
2023-03-26T19:32:36.681Z,100853.06
2023-03-26T19:35:06.670Z,100861.91
2023-03-26T19:37:36.421Z,100865.28
2023-03-26T19:40:17.078Z,100866.97
2023-03-26T19:42:46.753Z,100871.75
2023-03-26T19:45:19.702Z,100865.44
2023-03-26T19:48:00.179Z,100861.41
2023-03-26T19:50:35.263Z,100862.91
2023-03-26T19:53:17.146Z,100864.06
2023-03-26T19:56:06.396Z,100862.38
2023-03-26T19:58:37.146Z,100866.88
2023-03-26T20:01:07.210Z,100869.03
2023-03-26T20:03:44.494Z,100870.25
2023-03-26T20:06:15.157Z,100863.22
2023-03-26T20:08:45.334Z,100866.47
2023-03-26T20:11:44.987Z,100866.88
2023-03-26T20:14:19.307Z,100862.97
2023-03-26T20:16:48.956Z,100870.97
2023-03-26T20:19:18.773Z,100869.84
2023-03-26T20:21:48.514Z,100868.63
2023-03-26T20:24:19.265Z,100872.66
2023-03-26T20:26:51.440Z,100872.38
2023-03-26T20:29:21.836Z,100882.38
2023-03-26T20:31:51.545Z,100874.50
2023-03-26T20:34:25.215Z,100876.19
2023-03-26T20:37:01.285Z,100886.19
2023-03-26T20:39:31.187Z,100886.91
2023-03-26T20:42:00.801Z,100873.53
2023-03-26T20:44:30.457Z,100883.22
2023-03-26T20:47:00.588Z,100887.72
2023-03-26T20:49:30.860Z,100891.97
2023-03-26T20:52:01.802Z,100890.69
2023-03-26T20:54:34.459Z,100893.19
2023-03-26T20:57:04.170Z,100890.84
2023-03-26T20:59:34.050Z,100887.78
2023-03-26T21:02:03.840Z,100890.28
2023-03-26T21:04:33.741Z,100889.75
2023-03-26T21:07:14.930Z,100900.44
2023-03-26T21:09:48.576Z,100896.78
2023-03-26T21:12:31.038Z,100898.59
2023-03-26T21:15:03.211Z,100898.91
2023-03-26T21:17:35.035Z,100902.59
2023-03-26T21:20:12.302Z,100902.00
2023-03-26T21:22:50.612Z,100903.66
2023-03-26T21:25:44.825Z,100912.28
2023-03-26T21:28:41.373Z,100913.28
2023-03-26T21:31:23.031Z,100911.00
2023-03-26T21:33:53.382Z,100917.47
2023-03-26T21:36:24.421Z,100922.31
2023-03-26T21:38:56.155Z,100913.50
2023-03-26T21:41:25.756Z,100924.16
2023-03-26T21:43:58.272Z,100927.22
2023-03-26T21:46:28.640Z,100925.69
2023-03-26T21:48:58.777Z,100922.25
2023-03-26T21:51:28.752Z,100933.97
2023-03-26T21:53:58.753Z,100935.34
2023-03-26T21:57:10.240Z,100941.84
2023-03-26T21:59:47.291Z,100943.50
2023-03-26T22:02:29.268Z,100956.72
2023-03-26T22:05:28.671Z,100961.09
2023-03-26T22:08:05.988Z,100964.34
2023-03-26T22:10:36.063Z,100967.88
2023-03-26T22:13:05.701Z,100970.09
2023-03-26T22:15:35.539Z,100977.19
2023-03-26T22:18:05.657Z,100981.97
2023-03-26T22:20:35.708Z,100999.81
2023-03-26T22:23:06.424Z,101002.56
2023-03-26T22:25:36.081Z,101008.13
2023-03-26T22:28:06.161Z,101017.28
2023-03-26T22:30:35.922Z,101020.00
2023-03-26T22:33:05.986Z,101019.34
2023-03-26T22:35:35.744Z,101016.72
2023-03-26T22:38:05.855Z,101027.94
2023-03-26T22:40:35.677Z,101027.59
2023-03-26T22:43:05.509Z,101029.25
2023-03-26T22:45:35.254Z,101034.88
2023-03-26T22:48:05.442Z,101032.44
2023-03-26T22:50:35.417Z,101039.56
2023-03-26T22:53:05.296Z,101035.41
2023-03-26T22:55:35.100Z,101037.09
2023-03-26T22:58:04.887Z,101041.94
2023-03-26T23:00:34.581Z,101048.69
2023-03-26T23:03:07.260Z,101048.06
2023-03-26T23:05:36.996Z,101054.56
2023-03-26T23:08:06.729Z,101052.03
2023-03-26T23:10:39.793Z,101057.31
2023-03-26T23:13:09.406Z,101064.13
2023-03-26T23:15:39.480Z,101062.47
2023-03-26T23:18:09.138Z,101060.38
2023-03-26T23:20:41.398Z,101056.41
2023-03-26T23:23:11.269Z,101066.59
2023-03-26T23:25:42.351Z,101076.75
2023-03-26T23:28:12.067Z,101073.13
2023-03-26T23:30:41.722Z,101063.44
2023-03-26T23:33:12.602Z,101077.38
2023-03-26T23:35:45.632Z,101075.81
2023-03-26T23:38:15.401Z,101077.03
2023-03-26T23:40:57.200Z,101085.00
2023-03-26T23:43:27.938Z,101082.38
2023-03-26T23:45:58.540Z,101096.63
2023-03-26T23:48:31.065Z,101085.13
2023-03-26T23:51:04.562Z,101089.47
2023-03-26T23:53:34.416Z,101099.22
2023-03-26T23:56:04.981Z,101097.34
2023-03-26T23:58:34.626Z,101095.88
